Balch, Arkansas
Current Conditions -  °F | °C
As of 9:56 AM on Friday 24 Oct 2014 (Local Time) from KM19 Reporting Station
Clear Clear  
Wind Chill: 58°   Ceiling: Unl
Heat Index: 58°   Visibility: 10mi
Dew Point: 51°   Wind: 6mph
Humidity: 77%   Direction: 200°SSW
Pressure: 30.18"   Gusts: NA
Location:  35.5533°N, 91.0796°W
Report Text: KM19 241456Z AUTO 20005KT 10SM CLR 14/11 A3018 RMK AO2 50007 T01440105 SLP217
Loading
Personal Weather Stations






























Interactive Weather Map
Tropical Storm Tracking
New forecast layout! Learn more

10-Day Weather Forecast

Advertisements
Track Severe Weather on mobile